sensor_id;sensor_type;location;lat;lon;timestamp;temperature;humidity
14119;DHT22;7138;49.246;9.100;2023-03-01T00:01:37;-1.20;99.90
14119;DHT22;7138;49.246;9.100;2023-03-01T00:04:03;-1.20;99.90
14119;DHT22;7138;49.246;9.100;2023-03-01T00:06:28;-1.20;99.90
14119;DHT22;7138;49.246;9.100;2023-03-01T00:08:56;-1.20;99.90
14119;DHT22;7138;49.246;9.100;2023-03-01T00:11:23;-1.30;99.90
14119;DHT22;7138;49.246;9.100;2023-03-01T00:13:52;-1.20;99.90
14119;DHT22;7138;49.246;9.100;2023-03-01T00:16:21;-1.20;99.90
14119;DHT22;7138;49.246;9.100;2023-03-01T00:18:48;-1.30;99.90
14119;DHT22;7138;49.246;9.100;2023-03-01T00:21:15;-1.30;99.90
14119;DHT22;7138;49.246;9.100;2023-03-01T00:23:41;-1.20;99.90
14119;DHT22;7138;49.246;9.100;2023-03-01T00:26:11;-1.30;99.90
14119;DHT22;7138;49.246;9.100;2023-03-01T00:28:38;-1.20;99.90
14119;DHT22;7138;49.246;9.100;2023-03-01T00:31:05;-1.30;99.90
14119;DHT22;7138;49.246;9.100;2023-03-01T00:33:31;-1.30;99.90
14119;DHT22;7138;49.246;9.100;2023-03-01T00:35:58;-1.40;99.90
14119;DHT22;7138;49.246;9.100;2023-03-01T00:38:24;-1.40;99.90
14119;DHT22;7138;49.246;9.100;2023-03-01T00:40:50;-1.40;99.90
14119;DHT22;7138;49.246;9.100;2023-03-01T00:43:18;-1.40;99.90
14119;DHT22;7138;49.246;9.100;2023-03-01T00:45:44;-1.30;99.90
14119;DHT22;7138;49.246;9.100;2023-03-01T00:48:10;-1.40;99.90
14119;DHT22;7138;49.246;9.100;2023-03-01T00:50:36;-1.30;99.90
14119;DHT22;7138;49.246;9.100;2023-03-01T00:53:02;-1.30;99.90
14119;DHT22;7138;49.246;9.100;2023-03-01T00:55:28;-1.30;99.90
14119;DHT22;7138;49.246;9.100;2023-03-01T00:57:54;-1.30;99.90
14119;DHT22;7138;49.246;9.100;2023-03-01T01:00:21;-1.40;99.90
14119;DHT22;7138;49.246;9.100;2023-03-01T01:02:48;-1.40;99.90
14119;DHT22;7138;49.246;9.100;2023-03-01T01:05:14;-1.40;99.90
14119;DHT22;7138;49.246;9.100;2023-03-01T01:07:46;-1.50;99.90
14119;DHT22;7138;49.246;9.100;2023-03-01T01:10:13;-1.60;99.90
14119;DHT22;7138;49.246;9.100;2023-03-01T01:12:42;-1.60;99.90
14119;DHT22;7138;49.246;9.100;2023-03-01T01:15:09;-1.60;99.90
14119;DHT22;7138;49.246;9.100;2023-03-01T01:17:40;-1.60;99.90
14119;DHT22;7138;49.246;9.100;2023-03-01T01:20:06;-1.70;99.90
14119;DHT22;7138;49.246;9.100;2023-03-01T01:22:33;-1.80;99.90
14119;DHT22;7138;49.246;9.100;2023-03-01T01:24:59;-1.70;99.90
14119;DHT22;7138;49.246;9.100;2023-03-01T01:27:25;-1.60;99.90
14119;DHT22;7138;49.246;9.100;2023-03-01T01:29:53;-1.50;99.90
14119;DHT22;7138;49.246;9.100;2023-03-01T01:32:18;-1.50;99.90
14119;DHT22;7138;49.246;9.100;2023-03-01T01:34:46;-1.50;99.90
14119;DHT22;7138;49.246;9.100;2023-03-01T01:37:12;-1.50;99.90
14119;DHT22;7138;49.246;9.100;2023-03-01T01:39:38;-1.60;99.90
14119;DHT22;7138;49.246;9.100;2023-03-01T01:42:03;-1.50;99.90
14119;DHT22;7138;49.246;9.100;2023-03-01T01:44:30;-1.60;99.90
14119;DHT22;7138;49.246;9.100;2023-03-01T01:46:58;-1.70;99.90
14119;DHT22;7138;49.246;9.100;2023-03-01T01:49:31;-1.80;99.90
14119;DHT22;7138;49.246;9.100;2023-03-01T01:52:07;-1.80;99.90
14119;DHT22;7138;49.246;9.100;2023-03-01T01:54:42;-1.80;99.90
14119;DHT22;7138;49.246;9.100;2023-03-01T01:57:14;-1.80;99.90
14119;DHT22;7138;49.246;9.100;2023-03-01T01:59:46;-1.80;99.90
14119;DHT22;7138;49.246;9.100;2023-03-01T02:02:16;-1.80;99.90
14119;DHT22;7138;49.246;9.100;2023-03-01T02:04:42;-1.80;99.90
14119;DHT22;7138;49.246;9.100;2023-03-01T02:07:14;-1.60;99.90
14119;DHT22;7138;49.246;9.100;2023-03-01T02:09:42;-1.70;99.90
14119;DHT22;7138;49.246;9.100;2023-03-01T02:12:13;-1.70;99.90
14119;DHT22;7138;49.246;9.100;2023-03-01T02:14:39;-1.60;99.90
14119;DHT22;7138;49.246;9.100;2023-03-01T02:17:05;-1.60;99.90
14119;DHT22;7138;49.246;9.100;2023-03-01T02:19:44;-1.60;99.90
14119;DHT22;7138;49.246;9.100;2023-03-01T02:22:24;-1.60;99.90
14119;DHT22;7138;49.246;9.100;2023-03-01T02:25:03;-1.60;99.90
14119;DHT22;7138;49.246;9.100;2023-03-01T02:27:42;-1.70;99.90
14119;DHT22;7138;49.246;9.100;2023-03-01T02:30:17;-1.70;99.90
14119;DHT22;7138;49.246;9.100;2023-03-01T02:32:44;-1.80;99.90
14119;DHT22;7138;49.246;9.100;2023-03-01T02:35:13;-2.00;99.90
14119;DHT22;7138;49.246;9.100;2023-03-01T02:37:42;-2.10;99.90
14119;DHT22;7138;49.246;9.100;2023-03-01T02:40:12;-2.10;99.90
14119;DHT22;7138;49.246;9.100;2023-03-01T02:42:48;-2.10;99.90
14119;DHT22;7138;49.246;9.100;2023-03-01T02:45:19;-2.10;99.90
14119;DHT22;7138;49.246;9.100;2023-03-01T02:47:45;-2.10;99.90
14119;DHT22;7138;49.246;9.100;2023-03-01T02:50:29;-2.20;99.90
14119;DHT22;7138;49.246;9.100;2023-03-01T02:53:14;-2.30;99.90
14119;DHT22;7138;49.246;9.100;2023-03-01T02:55:45;-2.30;99.90
14119;DHT22;7138;49.246;9.100;2023-03-01T02:58:11;-2.40;99.90
14119;DHT22;7138;49.246;9.100;2023-03-01T03:00:40;-2.50;99.90
14119;DHT22;7138;49.246;9.100;2023-03-01T03:03:13;-2.50;99.90
14119;DHT22;7138;49.246;9.100;2023-03-01T03:05:40;-2.50;99.90
14119;DHT22;7138;49.246;9.100;2023-03-01T03:08:06;-2.50;99.90
14119;DHT22;7138;49.246;9.100;2023-03-01T03:10:35;-2.60;99.90
14119;DHT22;7138;49.246;9.100;2023-03-01T03:13:05;-2.60;99.90
14119;DHT22;7138;49.246;9.100;2023-03-01T03:15:33;-2.70;99.90
14119;DHT22;7138;49.246;9.100;2023-03-01T03:18:07;-2.70;99.90
14119;DHT22;7138;49.246;9.100;2023-03-01T03:20:35;-2.70;99.90
14119;DHT22;7138;49.246;9.100;2023-03-01T03:23:02;-2.70;99.90
14119;DHT22;7138;49.246;9.100;2023-03-01T03:25:29;-2.70;99.90
14119;DHT22;7138;49.246;9.100;2023-03-01T03:27:56;-2.70;99.90
14119;DHT22;7138;49.246;9.100;2023-03-01T03:30:23;-2.70;99.90
14119;DHT22;7138;49.246;9.100;2023-03-01T03:32:50;-2.70;99.90
14119;DHT22;7138;49.246;9.100;2023-03-01T03:35:22;-2.60;99.90
14119;DHT22;7138;49.246;9.100;2023-03-01T03:37:51;-2.60;99.90
14119;DHT22;7138;49.246;9.100;2023-03-01T03:40:28;-2.60;99.90
14119;DHT22;7138;49.246;9.100;2023-03-01T03:42:55;-2.60;99.90
14119;DHT22;7138;49.246;9.100;2023-03-01T03:45:21;-2.50;99.90
14119;DHT22;7138;49.246;9.100;2023-03-01T03:47:47;-2.30;99.90
14119;DHT22;7138;49.246;9.100;2023-03-01T03:50:15;-2.30;99.90
14119;DHT22;7138;49.246;9.100;2023-03-01T03:52:44;-2.30;99.90
14119;DHT22;7138;49.246;9.100;2023-03-01T03:55:11;-2.40;99.90
14119;DHT22;7138;49.246;9.100;2023-03-01T03:57:38;-2.40;99.90
14119;DHT22;7138;49.246;9.100;2023-03-01T04:00:07;-2.40;99.90
14119;DHT22;7138;49.246;9.100;2023-03-01T04:02:38;-2.30;99.90
14119;DHT22;7138;49.246;9.100;2023-03-01T04:05:05;-2.30;99.90
14119;DHT22;7138;49.246;9.100;2023-03-01T04:07:33;-2.30;99.90
14119;DHT22;7138;49.246;9.100;2023-03-01T04:10:00;-2.30;99.90
14119;DHT22;7138;49.246;9.100;2023-03-01T04:12:26;-2.40;99.90
14119;DHT22;7138;49.246;9.100;2023-03-01T04:14:52;-2.30;99.90
14119;DHT22;7138;49.246;9.100;2023-03-01T04:17:18;-2.40;99.90
14119;DHT22;7138;49.246;9.100;2023-03-01T04:19:44;-2.30;99.90
14119;DHT22;7138;49.246;9.100;2023-03-01T04:22:14;-2.30;99.90
14119;DHT22;7138;49.246;9.100;2023-03-01T04:24:42;-2.40;99.90
14119;DHT22;7138;49.246;9.100;2023-03-01T04:27:10;-2.40;99.90
14119;DHT22;7138;49.246;9.100;2023-03-01T04:29:36;-2.40;99.90
14119;DHT22;7138;49.246;9.100;2023-03-01T04:32:02;-2.30;99.90
14119;DHT22;7138;49.246;9.100;2023-03-01T04:34:28;-2.40;99.90
14119;DHT22;7138;49.246;9.100;2023-03-01T04:36:55;-2.30;99.90
14119;DHT22;7138;49.246;9.100;2023-03-01T04:39:21;-2.30;99.90
14119;DHT22;7138;49.246;9.100;2023-03-01T04:41:47;-2.30;99.90
14119;DHT22;7138;49.246;9.100;2023-03-01T04:44:14;-2.40;99.90
14119;DHT22;7138;49.246;9.100;2023-03-01T04:46:40;-2.40;99.90
14119;DHT22;7138;49.246;9.100;2023-03-01T04:49:05;-2.40;99.90
14119;DHT22;7138;49.246;9.100;2023-03-01T04:51:31;-2.40;99.90
14119;DHT22;7138;49.246;9.100;2023-03-01T04:53:58;-2.40;99.90
14119;DHT22;7138;49.246;9.100;2023-03-01T04:56:23;-2.40;99.90
14119;DHT22;7138;49.246;9.100;2023-03-01T04:58:49;-2.40;99.90
14119;DHT22;7138;49.246;9.100;2023-03-01T05:01:20;-2.50;99.90
14119;DHT22;7138;49.246;9.100;2023-03-01T05:03:48;-2.50;99.90
14119;DHT22;7138;49.246;9.100;2023-03-01T05:06:19;-2.40;99.90
14119;DHT22;7138;49.246;9.100;2023-03-01T05:08:45;-2.40;99.90
14119;DHT22;7138;49.246;9.100;2023-03-01T05:11:12;-2.40;99.90
14119;DHT22;7138;49.246;9.100;2023-03-01T05:13:39;-2.40;99.90
14119;DHT22;7138;49.246;9.100;2023-03-01T05:16:06;-2.40;99.90
14119;DHT22;7138;49.246;9.100;2023-03-01T05:18:38;-2.40;99.90
14119;DHT22;7138;49.246;9.100;2023-03-01T05:21:07;-2.50;99.90
14119;DHT22;7138;49.246;9.100;2023-03-01T05:23:34;-2.50;99.90
14119;DHT22;7138;49.246;9.100;2023-03-01T05:26:02;-2.50;99.90
14119;DHT22;7138;49.246;9.100;2023-03-01T05:28:30;-2.50;99.90
14119;DHT22;7138;49.246;9.100;2023-03-01T05:30:56;-2.50;99.90
14119;DHT22;7138;49.246;9.100;2023-03-01T05:33:23;-2.60;99.90
14119;DHT22;7138;49.246;9.100;2023-03-01T05:35:51;-2.60;99.90
14119;DHT22;7138;49.246;9.100;2023-03-01T05:38:19;-2.60;99.90
14119;DHT22;7138;49.246;9.100;2023-03-01T05:40:47;-2.60;99.90
14119;DHT22;7138;49.246;9.100;2023-03-01T05:43:15;-2.60;99.90
14119;DHT22;7138;49.246;9.100;2023-03-01T05:45:43;-2.70;99.90
14119;DHT22;7138;49.246;9.100;2023-03-01T05:48:10;-2.60;99.90
14119;DHT22;7138;49.246;9.100;2023-03-01T05:50:39;-2.60;99.90
14119;DHT22;7138;49.246;9.100;2023-03-01T05:53:10;-2.70;99.90
14119;DHT22;7138;49.246;9.100;2023-03-01T05:55:38;-2.70;99.90
14119;DHT22;7138;49.246;9.100;2023-03-01T05:58:07;-2.70;99.90
14119;DHT22;7138;49.246;9.100;2023-03-01T06:00:36;-2.80;99.90
14119;DHT22;7138;49.246;9.100;2023-03-01T06:03:02;-2.80;99.90
14119;DHT22;7138;49.246;9.100;2023-03-01T06:05:29;-2.90;99.90
14119;DHT22;7138;49.246;9.100;2023-03-01T06:07:58;-2.80;99.90
14119;DHT22;7138;49.246;9.100;2023-03-01T06:10:25;-2.80;99.90
14119;DHT22;7138;49.246;9.100;2023-03-01T06:12:51;-2.90;99.90
14119;DHT22;7138;49.246;9.100;2023-03-01T06:15:17;-2.80;99.90
14119;DHT22;7138;49.246;9.100;2023-03-01T06:17:45;-2.80;99.90
14119;DHT22;7138;49.246;9.100;2023-03-01T06:20:13;-2.80;99.90
14119;DHT22;7138;49.246;9.100;2023-03-01T06:22:41;-2.70;99.90
14119;DHT22;7138;49.246;9.100;2023-03-01T06:25:07;-2.70;99.90
14119;DHT22;7138;49.246;9.100;2023-03-01T06:27:36;-2.70;99.90
14119;DHT22;7138;49.246;9.100;2023-03-01T06:30:02;-2.70;99.90
14119;DHT22;7138;49.246;9.100;2023-03-01T06:32:28;-2.60;99.90
14119;DHT22;7138;49.246;9.100;2023-03-01T06:34:53;-2.60;99.90
14119;DHT22;7138;49.246;9.100;2023-03-01T06:37:19;-2.50;99.90
14119;DHT22;7138;49.246;9.100;2023-03-01T06:39:45;-2.40;99.90
14119;DHT22;7138;49.246;9.100;2023-03-01T06:42:11;-2.40;99.90
14119;DHT22;7138;49.246;9.100;2023-03-01T06:44:38;-2.30;99.90
14119;DHT22;7138;49.246;9.100;2023-03-01T06:47:04;-2.20;99.90
14119;DHT22;7138;49.246;9.100;2023-03-01T06:49:30;-2.10;99.90
14119;DHT22;7138;49.246;9.100;2023-03-01T06:51:56;-2.00;99.90
14119;DHT22;7138;49.246;9.100;2023-03-01T06:54:22;-1.90;99.90
14119;DHT22;7138;49.246;9.100;2023-03-01T06:56:48;-1.80;99.90
14119;DHT22;7138;49.246;9.100;2023-03-01T06:59:15;-1.70;99.90
14119;DHT22;7138;49.246;9.100;2023-03-01T07:01:42;-1.60;99.90
14119;DHT22;7138;49.246;9.100;2023-03-01T07:04:09;-1.60;99.90
14119;DHT22;7138;49.246;9.100;2023-03-01T07:06:34;-1.40;99.90
14119;DHT22;7138;49.246;9.100;2023-03-01T07:09:03;-1.30;99.90
14119;DHT22;7138;49.246;9.100;2023-03-01T07:11:29;-1.20;99.90
14119;DHT22;7138;49.246;9.100;2023-03-01T07:13:55;-1.10;99.90
14119;DHT22;7138;49.246;9.100;2023-03-01T07:16:21;-1.10;99.90
14119;DHT22;7138;49.246;9.100;2023-03-01T07:18:48;-0.90;99.90
14119;DHT22;7138;49.246;9.100;2023-03-01T07:21:14;-0.80;99.90
14119;DHT22;7138;49.246;9.100;2023-03-01T07:23:41;-0.60;99.90
14119;DHT22;7138;49.246;9.100;2023-03-01T07:26:07;-0.60;99.90
14119;DHT22;7138;49.246;9.100;2023-03-01T07:28:33;-0.50;99.90
14119;DHT22;7138;49.246;9.100;2023-03-01T07:31:05;-0.40;99.90
14119;DHT22;7138;49.246;9.100;2023-03-01T07:33:32;-0.40;99.90
14119;DHT22;7138;49.246;9.100;2023-03-01T07:36:01;-0.30;99.90
14119;DHT22;7138;49.246;9.100;2023-03-01T07:38:28;-0.30;99.90
14119;DHT22;7138;49.246;9.100;2023-03-01T07:40:57;-0.20;99.90
14119;DHT22;7138;49.246;9.100;2023-03-01T07:43:24;0.00;99.90
14119;DHT22;7138;49.246;9.100;2023-03-01T07:45:50;0.00;99.90
14119;DHT22;7138;49.246;9.100;2023-03-01T07:48:16;0.00;99.90
14119;DHT22;7138;49.246;9.100;2023-03-01T07:50:41;0.20;99.90
14119;DHT22;7138;49.246;9.100;2023-03-01T07:53:09;0.40;99.90
14119;DHT22;7138;49.246;9.100;2023-03-01T07:55:35;0.40;99.90
14119;DHT22;7138;49.246;9.100;2023-03-01T07:58:01;0.50;99.90
14119;DHT22;7138;49.246;9.100;2023-03-01T08:00:27;0.60;99.90
14119;DHT22;7138;49.246;9.100;2023-03-01T08:02:53;0.70;99.90
14119;DHT22;7138;49.246;9.100;2023-03-01T08:05:18;0.80;99.90
14119;DHT22;7138;49.246;9.100;2023-03-01T08:07:44;0.90;99.90
14119;DHT22;7138;49.246;9.100;2023-03-01T08:10:12;1.00;99.90
14119;DHT22;7138;49.246;9.100;2023-03-01T08:12:37;0.90;99.90
14119;DHT22;7138;49.246;9.100;2023-03-01T08:15:04;0.90;99.90
14119;DHT22;7138;49.246;9.100;2023-03-01T08:17:30;0.70;99.90
14119;DHT22;7138;49.246;9.100;2023-03-01T08:19:56;0.90;99.90
14119;DHT22;7138;49.246;9.100;2023-03-01T08:22:22;1.00;99.90
14119;DHT22;7138;49.246;9.100;2023-03-01T08:24:48;1.00;99.90
14119;DHT22;7138;49.246;9.100;2023-03-01T08:27:16;1.00;99.90
14119;DHT22;7138;49.246;9.100;2023-03-01T08:29:42;1.10;99.90
14119;DHT22;7138;49.246;9.100;2023-03-01T08:32:08;1.10;99.90
14119;DHT22;7138;49.246;9.100;2023-03-01T08:34:34;1.20;99.90
14119;DHT22;7138;49.246;9.100;2023-03-01T08:37:01;1.20;99.90
14119;DHT22;7138;49.246;9.100;2023-03-01T08:39:27;1.60;99.90
14119;DHT22;7138;49.246;9.100;2023-03-01T08:41:53;1.50;99.90
14119;DHT22;7138;49.246;9.100;2023-03-01T08:44:20;1.30;99.90
14119;DHT22;7138;49.246;9.100;2023-03-01T08:46:47;1.50;99.90
14119;DHT22;7138;49.246;9.100;2023-03-01T08:49:14;1.60;99.90
14119;DHT22;7138;49.246;9.100;2023-03-01T08:51:42;1.80;99.90
14119;DHT22;7138;49.246;9.100;2023-03-01T08:54:11;1.70;99.90
14119;DHT22;7138;49.246;9.100;2023-03-01T08:56:40;1.80;99.90
14119;DHT22;7138;49.246;9.100;2023-03-01T08:59:06;1.90;99.90
14119;DHT22;7138;49.246;9.100;2023-03-01T09:01:33;1.80;99.90
14119;DHT22;7138;49.246;9.100;2023-03-01T09:04:03;1.90;99.90
14119;DHT22;7138;49.246;9.100;2023-03-01T09:06:30;2.00;99.90
14119;DHT22;7138;49.246;9.100;2023-03-01T09:08:56;2.00;99.90
14119;DHT22;7138;49.246;9.100;2023-03-01T09:11:22;2.00;99.90
14119;DHT22;7138;49.246;9.100;2023-03-01T09:13:49;2.20;99.90
14119;DHT22;7138;49.246;9.100;2023-03-01T09:16:17;2.10;99.90
14119;DHT22;7138;49.246;9.100;2023-03-01T09:18:49;2.50;99.90
14119;DHT22;7138;49.246;9.100;2023-03-01T09:21:17;2.50;99.90
14119;DHT22;7138;49.246;9.100;2023-03-01T09:23:45;2.60;99.90
14119;DHT22;7138;49.246;9.100;2023-03-01T09:26:14;2.80;99.90
14119;DHT22;7138;49.246;9.100;2023-03-01T09:28:42;2.80;99.90
14119;DHT22;7138;49.246;9.100;2023-03-01T09:31:10;2.80;99.90
14119;DHT22;7138;49.246;9.100;2023-03-01T09:33:38;3.00;99.90
14119;DHT22;7138;49.246;9.100;2023-03-01T09:36:10;3.10;99.90
14119;DHT22;7138;49.246;9.100;2023-03-01T09:38:37;3.10;99.90
14119;DHT22;7138;49.246;9.100;2023-03-01T09:41:09;3.20;99.90
14119;DHT22;7138;49.246;9.100;2023-03-01T09:43:45;3.10;99.90
14119;DHT22;7138;49.246;9.100;2023-03-01T09:46:20;3.40;99.90
14119;DHT22;7138;49.246;9.100;2023-03-01T09:48:51;3.10;99.90
14119;DHT22;7138;49.246;9.100;2023-03-01T09:51:26;3.20;99.90
14119;DHT22;7138;49.246;9.100;2023-03-01T09:53:55;3.40;99.90
14119;DHT22;7138;49.246;9.100;2023-03-01T09:56:27;3.40;99.90
14119;DHT22;7138;49.246;9.100;2023-03-01T09:59:02;3.60;99.90
14119;DHT22;7138;49.246;9.100;2023-03-01T10:01:44;3.70;99.90
14119;DHT22;7138;49.246;9.100;2023-03-01T10:04:35;4.00;99.90
14119;DHT22;7138;49.246;9.100;2023-03-01T10:07:27;4.00;99.90
14119;DHT22;7138;49.246;9.100;2023-03-01T10:09:58;4.20;99.90
14119;DHT22;7138;49.246;9.100;2023-03-01T10:12:27;4.10;99.90
14119;DHT22;7138;49.246;9.100;2023-03-01T10:15:04;4.30;99.90
14119;DHT22;7138;49.246;9.100;2023-03-01T10:17:38;4.40;99.90
14119;DHT22;7138;49.246;9.100;2023-03-01T10:20:18;4.50;99.90
14119;DHT22;7138;49.246;9.100;2023-03-01T10:22:48;4.90;99.90
14119;DHT22;7138;49.246;9.100;2023-03-01T10:25:23;4.70;99.90
14119;DHT22;7138;49.246;9.100;2023-03-01T10:28:04;4.60;99.90
14119;DHT22;7138;49.246;9.100;2023-03-01T10:30:44;4.60;99.90
14119;DHT22;7138;49.246;9.100;2023-03-01T10:33:16;4.70;99.90
14119;DHT22;7138;49.246;9.100;2023-03-01T10:35:46;5.20;99.90
14119;DHT22;7138;49.246;9.100;2023-03-01T10:38:16;5.50;99.90
14119;DHT22;7138;49.246;9.100;2023-03-01T10:40:54;5.70;99.90
14119;DHT22;7138;49.246;9.100;2023-03-01T10:43:23;5.80;99.90
14119;DHT22;7138;49.246;9.100;2023-03-01T10:45:49;5.70;99.90
14119;DHT22;7138;49.246;9.100;2023-03-01T10:48:18;5.70;99.90
14119;DHT22;7138;49.246;9.100;2023-03-01T10:50:48;5.60;99.90
14119;DHT22;7138;49.246;9.100;2023-03-01T10:53:23;5.40;99.90
14119;DHT22;7138;49.246;9.100;2023-03-01T10:55:58;5.90;99.90
14119;DHT22;7138;49.246;9.100;2023-03-01T10:58:26;6.10;99.90
14119;DHT22;7138;49.246;9.100;2023-03-01T11:00:54;6.20;99.90
14119;DHT22;7138;49.246;9.100;2023-03-01T11:03:23;5.70;99.90
14119;DHT22;7138;49.246;9.100;2023-03-01T11:06:19;6.20;99.90
14119;DHT22;7138;49.246;9.100;2023-03-01T11:08:49;5.90;99.90
14119;DHT22;7138;49.246;9.100;2023-03-01T11:11:31;5.90;99.90
14119;DHT22;7138;49.246;9.100;2023-03-01T11:14:00;5.80;99.90
14119;DHT22;7138;49.246;9.100;2023-03-01T11:16:34;6.10;99.90
14119;DHT22;7138;49.246;9.100;2023-03-01T11:19:16;6.40;99.90
14119;DHT22;7138;49.246;9.100;2023-03-01T11:21:55;6.50;99.90
14119;DHT22;7138;49.246;9.100;2023-03-01T11:24:32;6.20;99.90
14119;DHT22;7138;49.246;9.100;2023-03-01T11:27:16;6.20;99.90
14119;DHT22;7138;49.246;9.100;2023-03-01T11:29:48;6.30;99.90
14119;DHT22;7138;49.246;9.100;2023-03-01T11:32:21;6.60;99.90
14119;DHT22;7138;49.246;9.100;2023-03-01T11:34:53;6.20;99.90
14119;DHT22;7138;49.246;9.100;2023-03-01T11:37:32;6.70;99.90
14119;DHT22;7138;49.246;9.100;2023-03-01T11:40:13;6.90;99.90
14119;DHT22;7138;49.246;9.100;2023-03-01T11:42:53;6.80;99.90
14119;DHT22;7138;49.246;9.100;2023-03-01T11:45:38;7.30;99.90
14119;DHT22;7138;49.246;9.100;2023-03-01T11:48:34;7.20;99.90
14119;DHT22;7138;49.246;9.100;2023-03-01T11:51:20;6.90;99.90
14119;DHT22;7138;49.246;9.100;2023-03-01T11:54:18;7.20;99.90
14119;DHT22;7138;49.246;9.100;2023-03-01T11:56:57;7.20;99.90
14119;DHT22;7138;49.246;9.100;2023-03-01T12:06:00;7.40;99.90
14119;DHT22;7138;49.246;9.100;2023-03-01T12:08:38;7.40;99.90
14119;DHT22;7138;49.246;9.100;2023-03-01T12:11:19;7.20;99.90
14119;DHT22;7138;49.246;9.100;2023-03-01T12:14:05;7.60;99.90
14119;DHT22;7138;49.246;9.100;2023-03-01T12:17:16;7.70;99.90
14119;DHT22;7138;49.246;9.100;2023-03-01T12:20:07;7.80;99.90
14119;DHT22;7138;49.246;9.100;2023-03-01T12:22:55;7.30;99.90
14119;DHT22;7138;49.246;9.100;2023-03-01T12:25:53;7.80;99.90
14119;DHT22;7138;49.246;9.100;2023-03-01T12:28:49;7.40;99.90
14119;DHT22;7138;49.246;9.100;2023-03-01T12:31:47;7.50;99.90
14119;DHT22;7138;49.246;9.100;2023-03-01T12:34:49;7.50;99.90
14119;DHT22;7138;49.246;9.100;2023-03-01T12:37:31;7.40;99.90
14119;DHT22;7138;49.246;9.100;2023-03-01T12:40:21;7.70;99.90
14119;DHT22;7138;49.246;9.100;2023-03-01T12:43:06;7.40;99.90
14119;DHT22;7138;49.246;9.100;2023-03-01T12:45:48;7.10;99.90
14119;DHT22;7138;49.246;9.100;2023-03-01T12:48:34;7.40;99.90
14119;DHT22;7138;49.246;9.100;2023-03-01T12:51:11;7.70;99.90
14119;DHT22;7138;49.246;9.100;2023-03-01T12:53:44;8.00;99.90
14119;DHT22;7138;49.246;9.100;2023-03-01T12:56:17;8.10;99.90
14119;DHT22;7138;49.246;9.100;2023-03-01T12:58:55;8.10;99.90
14119;DHT22;7138;49.246;9.100;2023-03-01T13:01:39;7.80;99.90
14119;DHT22;7138;49.246;9.100;2023-03-01T13:04:24;8.10;99.90
14119;DHT22;7138;49.246;9.100;2023-03-01T13:07:19;7.60;99.90
14119;DHT22;7138;49.246;9.100;2023-03-01T13:10:03;7.90;99.90
14119;DHT22;7138;49.246;9.100;2023-03-01T13:12:51;7.70;99.90
14119;DHT22;7138;49.246;9.100;2023-03-01T13:15:27;7.60;99.90
14119;DHT22;7138;49.246;9.100;2023-03-01T13:17:55;7.90;99.90
14119;DHT22;7138;49.246;9.100;2023-03-01T13:20:29;8.20;99.90
14119;DHT22;7138;49.246;9.100;2023-03-01T13:23:10;8.20;99.90
14119;DHT22;7138;49.246;9.100;2023-03-01T13:26:14;8.20;99.90
14119;DHT22;7138;49.246;9.100;2023-03-01T13:28:56;8.10;99.90
14119;DHT22;7138;49.246;9.100;2023-03-01T13:34:44;7.90;99.90
14119;DHT22;7138;49.246;9.100;2023-03-01T13:37:25;7.80;99.90
14119;DHT22;7138;49.246;9.100;2023-03-01T13:39:55;8.00;99.90
14119;DHT22;7138;49.246;9.100;2023-03-01T13:42:39;8.00;99.90
14119;DHT22;7138;49.246;9.100;2023-03-01T13:45:21;7.60;99.90
14119;DHT22;7138;49.246;9.100;2023-03-01T13:47:55;8.00;99.90
14119;DHT22;7138;49.246;9.100;2023-03-01T13:50:25;7.80;99.90
14119;DHT22;7138;49.246;9.100;2023-03-01T13:52:59;8.00;99.90
14119;DHT22;7138;49.246;9.100;2023-03-01T13:55:34;8.30;99.90
14119;DHT22;7138;49.246;9.100;2023-03-01T13:58:13;8.50;99.90
14119;DHT22;7138;49.246;9.100;2023-03-01T14:00:43;8.30;99.90
14119;DHT22;7138;49.246;9.100;2023-03-01T14:03:12;8.30;99.90
14119;DHT22;7138;49.246;9.100;2023-03-01T14:05:40;8.10;99.90
14119;DHT22;7138;49.246;9.100;2023-03-01T14:08:23;8.00;99.90
14119;DHT22;7138;49.246;9.100;2023-03-01T14:11:19;8.20;99.90
14119;DHT22;7138;49.246;9.100;2023-03-01T14:17:19;8.10;99.90
14119;DHT22;7138;49.246;9.100;2023-03-01T14:20:07;8.10;99.90
14119;DHT22;7138;49.246;9.100;2023-03-01T14:22:41;8.20;99.90
14119;DHT22;7138;49.246;9.100;2023-03-01T14:25:22;8.10;99.90
14119;DHT22;7138;49.246;9.100;2023-03-01T14:27:59;7.80;99.90
14119;DHT22;7138;49.246;9.100;2023-03-01T14:30:32;8.00;99.90
14119;DHT22;7138;49.246;9.100;2023-03-01T14:33:03;8.00;99.90
14119;DHT22;7138;49.246;9.100;2023-03-01T14:35:34;8.00;99.90
14119;DHT22;7138;49.246;9.100;2023-03-01T14:38:02;7.80;99.90
14119;DHT22;7138;49.246;9.100;2023-03-01T14:40:32;7.70;99.90
14119;DHT22;7138;49.246;9.100;2023-03-01T14:43:02;7.70;99.90
14119;DHT22;7138;49.246;9.100;2023-03-01T14:45:35;7.50;99.90
14119;DHT22;7138;49.246;9.100;2023-03-01T14:48:03;7.60;99.90
14119;DHT22;7138;49.246;9.100;2023-03-01T14:50:32;7.60;99.90
14119;DHT22;7138;49.246;9.100;2023-03-01T14:53:01;7.40;99.90
14119;DHT22;7138;49.246;9.100;2023-03-01T14:55:32;7.20;99.90
14119;DHT22;7138;49.246;9.100;2023-03-01T14:58:03;7.30;99.90
14119;DHT22;7138;49.246;9.100;2023-03-01T15:00:32;7.50;99.90
14119;DHT22;7138;49.246;9.100;2023-03-01T15:03:04;7.60;99.90
14119;DHT22;7138;49.246;9.100;2023-03-01T15:05:35;7.40;99.90
14119;DHT22;7138;49.246;9.100;2023-03-01T15:08:03;7.50;99.90
14119;DHT22;7138;49.246;9.100;2023-03-01T15:10:34;7.30;99.90
14119;DHT22;7138;49.246;9.100;2023-03-01T15:13:10;7.40;99.90
14119;DHT22;7138;49.246;9.100;2023-03-01T15:15:38;7.40;99.90
14119;DHT22;7138;49.246;9.100;2023-03-01T15:18:18;7.60;99.90
14119;DHT22;7138;49.246;9.100;2023-03-01T15:20:46;7.40;99.90
14119;DHT22;7138;49.246;9.100;2023-03-01T15:23:20;7.30;99.90
14119;DHT22;7138;49.246;9.100;2023-03-01T15:25:51;7.40;99.90
14119;DHT22;7138;49.246;9.100;2023-03-01T15:28:26;7.30;99.90
14119;DHT22;7138;49.246;9.100;2023-03-01T15:30:58;7.20;99.90
14119;DHT22;7138;49.246;9.100;2023-03-01T15:33:30;7.10;99.90
14119;DHT22;7138;49.246;9.100;2023-03-01T15:36:02;7.00;99.90
14119;DHT22;7138;49.246;9.100;2023-03-01T15:38:53;7.10;99.90
14119;DHT22;7138;49.246;9.100;2023-03-01T15:41:25;7.10;99.90
14119;DHT22;7138;49.246;9.100;2023-03-01T15:43:53;7.00;99.90
14119;DHT22;7138;49.246;9.100;2023-03-01T15:46:23;6.90;99.90
14119;DHT22;7138;49.246;9.100;2023-03-01T15:48:54;7.00;99.90
14119;DHT22;7138;49.246;9.100;2023-03-01T15:51:31;7.00;99.90
14119;DHT22;7138;49.246;9.100;2023-03-01T15:54:04;7.00;99.90
14119;DHT22;7138;49.246;9.100;2023-03-01T15:56:33;6.90;99.90
14119;DHT22;7138;49.246;9.100;2023-03-01T15:59:01;6.80;99.90
14119;DHT22;7138;49.246;9.100;2023-03-01T16:01:28;6.80;99.90
14119;DHT22;7138;49.246;9.100;2023-03-01T16:03:55;6.70;99.90
14119;DHT22;7138;49.246;9.100;2023-03-01T16:06:22;6.70;99.90
14119;DHT22;7138;49.246;9.100;2023-03-01T16:08:47;6.70;99.90
14119;DHT22;7138;49.246;9.100;2023-03-01T16:11:16;6.60;99.90
14119;DHT22;7138;49.246;9.100;2023-03-01T16:13:44;6.60;99.90
14119;DHT22;7138;49.246;9.100;2023-03-01T16:16:12;6.60;99.90
14119;DHT22;7138;49.246;9.100;2023-03-01T16:18:42;6.60;99.90
14119;DHT22;7138;49.246;9.100;2023-03-01T16:21:15;6.60;99.90
14119;DHT22;7138;49.246;9.100;2023-03-01T16:23:45;6.50;99.90
14119;DHT22;7138;49.246;9.100;2023-03-01T16:26:12;6.40;99.90
14119;DHT22;7138;49.246;9.100;2023-03-01T16:28:38;6.40;99.90
14119;DHT22;7138;49.246;9.100;2023-03-01T16:31:06;6.30;99.90
14119;DHT22;7138;49.246;9.100;2023-03-01T16:33:32;6.30;99.90